< < Back
Terminal Aerodrome Forecast


Current Version              Previous Versions:   1  2  3  4  5  6  7  8  9  

Terminal Aerodrome Forecast

394
FTUS44 KMRX 291720
TAFCHA
TAF
KCHA 291720Z 2918/3018 03003KT P6SM SCT250
     FM300600 00000KT P6SM FEW250=

Latest METAR

522
SAUS80 KWBC 301300 RRA
MTRCHA
METAR KCHA 301253Z 00000KT 10SM CLR 23/20 A3013 RMK AO2 SLP194
T02330200


USA.gov is the U.S. government's official web portal to all federal, state and local government web resources and services.